x

Devils Island, Wi (disw3) Weather Station

4:00pm - Tue 31st Mar 2015 All times are CDT. -5 hours from GMT.

  • Wind
    7mph, 9mph gusts
  • Air Temp 42°f
  • Sea Pressure 1012.7mb
  • Devils Island, Wi
  • Devils Island, Wi

More Historic Weather Station data

Upgrade to MSW Pro to gain access to the past 30 days of data for over 8000 Wavebouys and Weather Stations around the globe.

Join Pro

Comparision Forecast

View Surf forecast
   
Tue 03/31 4:00pm 7 9 mph 1012.7mb 42f
3:00pm 16 18 mph 1012.4mb 39f
2:00pm 23 25 mph 1011.6mb 38f
1:00pm 22 25 mph 1011.3mb 36f
12:00pm 24 29 mph 1011mb 36f
11:00am 21 26 mph 1010.4mb 36f
10:00am 21 23 mph 1010.5mb 34f
9:00am 13 16 mph 1010.6mb 33f
8:00am 7 10 mph 1010.2mb 33f
7:00am 7 8 mph 1011.1mb 32f
6:00am 7
mph
1011mb 32f
5:00am 7 9 mph 1011.5mb 32f
4:00am 3
mph
1011.1mb 32f
3:00am 6
mph
1011.5mb 32f
2:00am 5 6 mph 1011.5mb 33f
1:00am 8
mph
1011.9mb 34f
12:00am 11 13 mph 1012.1mb 35f
Mon 03/30 11:00pm 13 14 mph 1012.4mb 37f
10:00pm 9 11 mph 1012.5mb 36f
9:00pm 16 17 mph 1012.2mb 38f
8:00pm 11
mph
1011.2mb 43f
7:00pm 9 10 mph 1011.1mb 44f
6:00pm 10
mph
1011.1mb 44f
5:00pm 14
mph
1010.9mb 41f
4:00pm 8 10 mph 1011.1mb 41f
3:00pm 6
mph
1011.4mb 43f
2:00pm 6 7 mph 1012.3mb 46f
1:00pm 9 13 mph 1013.2mb 41f
12:00pm 15 17 mph 1014.1mb 37f
11:00am 14 17 mph 1014.1mb 36f
10:00am 13 16 mph 1013.8mb 36f
9:00am 15 16 mph 1013.7mb 35f
8:00am 18 20 mph 1013.2mb 36f
7:00am 16 18 mph 1012.9mb 37f
6:00am 15 16 mph 1011.8mb 36f
5:00am 18 20 mph 1010.9mb 38f
4:00am 16 18 mph 1010.1mb 36f
3:00am 23 25 mph 1009.2mb 37f
2:00am 25 29 mph 1008.9mb 37f
1:00am 26 30 mph 1008.6mb 37f
12:00am 20 28 mph 1009mb 40f
Sun 03/29 11:00pm 17 20 mph 1009.4mb 40f
10:00pm 18 22 mph 1009.2mb 39f
9:00pm 21 22 mph 1008.7mb 40f
8:00pm 23 24 mph 1007.9mb 40f
7:00pm 25 28 mph 1006.7mb 39f
6:00pm 16 20 mph 1005.1mb 39f
5:00pm 16 18 mph 1003.8mb 38f
4:00pm 23 25 mph 1002mb 38f
3:00pm 18 21 mph 1000.4mb 37f
2:00pm 26 29 mph 998.8mb 34f
1:00pm 21 25 mph 998.6mb 33f
12:00pm 17 20 mph 998.8mb 33f
11:00am 13 15 mph 999.1mb 35f
10:00am 11 16 mph 999.5mb 35f
9:00am 15 18 mph 1000.2mb 36f
8:00am 14 21 mph 1001mb 36f
7:00am 11 15 mph 1002.5mb 36f
6:00am 17 30 mph 1003.5mb 36f
5:00am 16 24 mph 1006mb 36f
4:00am 10 14 mph 1008.9mb 36f
3:00am 13 21 mph 1009.8mb 36f
2:00am 13 20 mph 1010.3mb 36f
1:00am 14 20 mph 1011.7mb 35f
12:00am 11 17 mph 1013.1mb 36f
Sat 03/28 11:00pm 14 20 mph 1014.6mb 37f
10:00pm 15 18 mph 1015.6mb 38f
9:00pm 14 17 mph 1016.2mb 39f
8:00pm 10 14 mph 1016.7mb 36f
7:00pm 8 9 mph 1017.8mb 33f
6:00pm 10
mph
1018.7mb 32f
5:00pm 10 11 mph 1019.2mb 31f
4:00pm 7 8 mph 1020.3mb 31f
3:00pm 6 7 mph 1021.4mb 31f
2:00pm 3 5 mph 1022.5mb 31f
1:00pm 1 3 mph 1023.4mb 33f
12:00pm 5 6 mph 1024.6mb 29f
11:00am 6 8 mph 1025.4mb 28f
10:00am 7 8 mph 1025.6mb 27f
9:00am 3 5 mph 1025.5mb 27f
8:00am 5
mph
1025.6mb 25f
7:00am  -  1 mph 1025.4mb 26f
6:00am 3
mph
1024.7mb 25f
5:00am 2 3 mph 1024.2mb 25f
4:00am  -  1 mph 1024.4mb 25f
3:00am  -  1 mph 1024.3mb 25f
2:00am  -  1 mph 1024.4mb 25f
1:00am 3
mph
1024.4mb 24f
12:00am 2 3 mph 1024.6mb 24f
Fri 03/27 11:00pm 5
mph
1024.4mb 23f